Sonic Adventure (DX): Overall Rankings

Records: Times | Rings | Scores | Races | Bosses | Freestyle
Leaders: Times | Rings | Scores | Races | Bosses | Freestyle | Overall
Rank Player Percent Points Date Grade
1 Sonicspeedruner 98.3% 281 05-17-16 S
2 Gamepro011 98.2% 293 05-17-16 A
3 DarkPolarNight 96.2% 624 05-17-16 A
4 Jawzun 93.5% 1077 05-17-16 A
5 Dashjump 92.1% 1310 05-17-16 A
6 DarkspinesSonic 90.4% 1597 05-17-16 A
7 Avento128bits 90.0% 1653 05-17-16 A
8 ike6252 89.9% 1677 05-17-16 A
9 F-Man 88.1% 1983 05-17-16 A
10 Coolfansonic 85.2% 2459 05-17-16 A
11 HyperSonic7701 84.8% 2521 05-17-16 A
12 yoshifan 83.2% 2800 05-17-16 A
13 frankoredstrato 82.8% 2861 05-17-16 A
14 TheRealShadnic 81.9% 3004 05-17-16 A
15 francisco 81.8% 3025 05-17-16 A
16 Marth 81.5% 3072 05-17-16 A
17 InferSaime 80.3% 3275 05-17-16 A
18 PfoSonic 79.9% 3346 05-17-16 B
19 Paragod 79.5% 3405 05-17-16 B
20 THC98 78.5% 3578 05-17-16 B
21 Stefan 76.3% 3952 05-17-16 B
22 RPGnutter 74.1% 4306 05-17-16 B
23 bertin 73.9% 4341 05-17-16 B
24 sonicam 71.8% 4699 05-17-16 B
25 drminus 70.5% 4919 05-17-16 B
26 Combo 65.9% 5673 05-17-16 B
27 SkyLights 64.8% 5869 05-17-16 B
28 xXMegaManXx 64.0% 5998 05-17-16 B
29 Diamond 62.7% 6206 05-17-16 B
30 Auriman1 60.7% 6551 05-17-16 B
31 OmegaDJ 60.6% 6554 05-17-16 B
32 GerbilSoft 60.6% 6558 05-17-16 B
33 magnum12 59.7% 6712 05-17-16 C
34 Thorn 57.7% 7047 05-17-16 C
35 P1 Pause 57.5% 7087 05-17-16 C
36 mike89 56.4% 7262 05-17-16 C
37 Dave Cramer 54.4% 7590 05-17-16 C
37 Groudon199 54.4% 7590 05-17-16 C
39 chainchumper 54.1% 7645 05-17-16 C
40 Parax 53.4% 7771 05-17-16 C
41 Shadow Jacky 53.3% 7777 05-17-16 C
42 Psymar 48.2% 8635 05-17-16 C
43 Arch 46.6% 8897 05-17-16 C
44 Chao_Fan 46.5% 8920 05-17-16 C
45 mauserman 45.5% 9083 05-17-16 C
46 Quartz 45.4% 9101 05-17-16 C
47 teamblackarms 44.5% 9250 05-17-16 C
48 Psyknux 43.6% 9399 05-17-16 C
49 James_Bertolli 43.5% 9416 05-17-16 C
50 NintenDan 43.1% 9474 05-17-16 C
51 Webber3000 42.6% 9560 05-17-16 C
52 Turbos 42.5% 9582 05-17-16 C
53 Cream147 42.1% 9655 05-17-16 C
54 Ring Rush 42.0% 9662 05-17-16 C
55 videogamemaster777 42.0% 9672 05-17-16 C
56 Fr3nZy 41.7% 9722 05-17-16 C
57 Siavash Tazari 41.6% 9735 05-17-16 C
58 buddychaos0415 41.2% 9801 05-17-16 C
59 SadisticMystic 40.4% 9931 05-17-16 C
60 eggFL 39.8% 10032 05-17-16 D
61 Redd 39.0% 10165 05-17-16 D
62 SB737 38.2% 10295 05-17-16 D
63 supersonic465 37.4% 10426 05-17-16 D
64 supersonicfan 37.1% 10479 05-17-16 D
65 FuzZerd 35.9% 10686 05-17-16 D
66 elecmouse101 35.2% 10803 05-17-16 D
67 Austinf 33.7% 11042 05-17-16 D
68 metanightmare22 33.7% 11043 05-17-16 D
69 Aitamen 33.4% 11096 05-17-16 D
70 Cyan Ryan 33.4% 11105 05-17-16 D
71 dabestgamer 33.3% 11110 05-17-16 D
72 MiStEr_ShAoLiN 33.3% 11121 05-17-16 D
73 Andrea Ritsu 32.4% 11272 05-17-16 D
74 itsPersonnal 32.0% 11336 05-17-16 D
75 Cybrax 31.3% 11446 05-17-16 D
76 SilvertheAlmighty 31.2% 11472 05-17-16 D
77 danieldude 31.0% 11499 05-17-16 D
78 VMU Player Banned 29.1% 11807 05-17-16 D
79 Staf 28.9% 11856 05-17-16 D
80 Omega Rafael Santos 28.7% 11880 05-17-16 D
81 The T 28.5% 11916 05-17-16 D
82 EngiNerd 28.2% 11964 05-17-16 D
83 lordmetalsonic 27.6% 12057 05-17-16 D
84 welldooder64 27.1% 12156 05-17-16 D
85 Hipertails12 27.0% 12160 05-17-16 D
86 GreatStar 26.8% 12191 05-17-16 D
87 Sondow 26.7% 12212 05-17-16 D
88 The Great Lord Mick 26.7% 12221 05-17-16 D
89 LinksDarkArrows 26.4% 12258 05-17-16 D
90 Mastakirby 26.4% 12261 05-17-16 D
91 Nimrod 26.1% 12315 05-17-16 D
92 Skylace 25.4% 12429 05-17-16 D
93 Rolken 24.0% 12661 05-17-16 D
94 Xia 22.3% 12955 05-17-16 D
95 Spinballwizard 22.2% 12959 05-17-16 D
96 Kogen Player Banned 22.2% 12961 05-17-16 D
97 a_moustache 22.1% 12978 05-17-16 D
98 f0rever_zer0 21.7% 13043 05-17-16 D
99 Twilisailor 21.7% 13049 05-17-16 D
100 Cutiefox 21.6% 13069 05-17-16 D
101 Don 21.5% 13076 05-17-16 D
102 Game_Complete 21.4% 13104 05-17-16 D
103 Miles9999 21.3% 13120 05-17-16 D
104 andres430 20.9% 13179 05-17-16 D
105 Cruizer 20.7% 13209 05-17-16 D
106 iSonicKid2K 20.5% 13242 05-17-16 D
107 SADXTryHard 20.2% 13291 05-17-16 D
108 GarnetPrincess 19.8% 13358 05-17-16 E
109 AxlThunder 19.0% 13497 05-17-16 E
110 knuckles_sonic8 18.8% 13536 05-17-16 E
111 The Knuckles Chao 18.4% 13604 05-17-16 E
112 KinkyCadence 18.3% 13611 05-17-16 E
113 Team_Yoshi 18.1% 13654 05-17-16 E
114 Termon 17.9% 13676 05-17-16 E
115 LittleBigness 17.9% 13690 05-17-16 E
116 FoxBoy 17.8% 13700 05-17-16 E
117 SonicWinDX 17.6% 13726 05-17-16 E
118 Drakodan 16.9% 13844 05-17-16 E
119 Sonic Singularity 15.9% 14011 05-17-16 E
120 Pokemonmaster888 15.8% 14041 05-17-16 E
121 BigAL49 14.8% 14203 05-17-16 E
122 SilverSonic 14.6% 14236 05-17-16 E
123 MPit08 14.5% 14242 05-17-16 E
124 WeegeeZV 14.3% 14279 05-17-16 E
125 Mo Player Banned 14.2% 14307 05-17-16 E
126 koinu93 14.1% 14321 05-17-16 E
127 HyperSonic64 13.7% 14385 05-17-16 E
128 Cod4Scopes 13.6% 14394 05-17-16 E
129 Jerzia 13.6% 14403 05-17-16 E
130 booo95 13.5% 14409 05-17-16 E
131 paulie9990 13.3% 14446 05-17-16 E
132 Chawkk 13.3% 14448 05-17-16 E
133 SuperSonic101 13.1% 14479 05-17-16 E
134 Hunters13 13.0% 14493 05-17-16 E
135 Maxinfamily 13.0% 14505 05-17-16 E
136 Kanimayo_Jp 12.6% 14559 05-17-16 E
137 LilZero 12.6% 14560 05-17-16 E
138 BrokenArthritis 12.5% 14584 05-17-16 E
139 PsyBorg 12.4% 14596 05-17-16 E
140 Flying Fox 12.4% 14600 05-17-16 E
141 Therio 11.9% 14675 05-17-16 E
142 sonicspeed 11.9% 14676 05-17-16 E
143 douglas 11.8% 14695 05-17-16 E
144 Matt_TY 11.5% 14755 05-17-16 E
145 thewaytodawnnn 11.4% 14759 05-17-16 E
146 Cooljay 10.8% 14863 05-17-16 E
147 SeaWolf 10.7% 14879 05-17-16 E
148 joecoolgames 10.7% 14883 05-17-16 E
149 videogamer1014 10.5% 14925 05-17-16 E
150 AC-Tygo 10.2% 14962 05-17-16 E
151 welshmoose05 10.2% 14971 05-17-16 E
152 TFEC Headshot 10.0% 15006 05-17-16 E
153 OddCook 10.0% 15008 05-17-16 E
154 crazy1993 9.9% 15014 05-17-16 E
155 Mcshuggets 9.7% 15054 05-17-16 E
156 niscool 9.4% 15100 05-17-16 E
157 imazor017 9.3% 15112 05-17-16 E
158 nuckrieg 9.2% 15126 05-17-16 E
159 Mariobutch 9.2% 15129 05-17-16 E
160 SonicAD 9.2% 15141 05-17-16 E
161 Shadowthegreat 9.0% 15160 05-17-16 E
162 superjupi 9.0% 15165 05-17-16 E
163 SirTobbii 9.0% 15172 05-17-16 E
164 sonamyfan666 8.7% 15218 05-17-16 E
165 iarebored 8.6% 15226 05-17-16 E
166 SaviourDC 8.6% 15238 05-17-16 E
167 SonicKnuckles 8.5% 15243 05-17-16 E
168 Werey 8.3% 15280 05-17-16 E
169 adf 8.2% 15301 05-17-16 E
170 Megaman EXE565 8.0% 15337 05-17-16 E
171 SuperBlitzCraig 7.9% 15347 05-17-16 E
172 ArcticDragon 7.7% 15379 05-17-16 E
173 Platformer 7.6% 15404 05-17-16 E
174 timpkmn89 7.4% 15427 05-17-16 E
175 FocusSight64 7.4% 15435 05-17-16 E
176 wheatrich 7.3% 15443 05-17-16 E
177 ethmar 7.3% 15445 05-17-16 E
177 Swift Hobo 7.3% 15445 05-17-16 E
179 Rickyman48 7.1% 15477 05-17-16 E
180 KitsuneYamaro 7.0% 15501 05-17-16 E
181 Triseena 6.8% 15536 05-17-16 E
182 CyberShadow 6.6% 15570 05-17-16 E
183 dShadow 6.5% 15583 05-17-16 E
184 slade23 6.5% 15587 05-17-16 E
185 Destroyer121121 6.5% 15591 05-17-16 E
185 Starlight Sable 6.5% 15591 05-17-16 E
187 IsisDazs 6.4% 15606 05-17-16 E
188 BlankTH 6.1% 15653 05-17-16 E
189 Monkeh 6.0% 15664 05-17-16 E
190 SonicU260 5.8% 15703 05-17-16 E
191 Richied 5.8% 15704 05-17-16 E
192 DaDude 5.7% 15713 05-17-16 E
193 Vicklaw 5.6% 15730 05-17-16 E
194 sonicd5 5.6% 15734 05-17-16 E
195 Zip 5.5% 15745 05-17-16 E
196 VeritasDL 5.2% 15803 05-17-16 E
197 tal39h 5.2% 15808 05-17-16 E
198 Kirbymon30 5.1% 15816 05-17-16 E
199 soniccoloursunleashed 4.9% 15845 05-17-16 E
200 Drflash55 4.9% 15852 05-17-16 E
201 Bass 4.8% 15864 05-17-16 E
202 neaolas 4.7% 15881 05-17-16 E
202 Yish 4.7% 15881 05-17-16 E
204 zapp 4.6% 15893 05-17-16 E
205 UninspiredUsername 4.6% 15901 05-17-16 E
206 Sonicsuperstar1 4.6% 15902 05-17-16 E
207 superiorsonic 4.6% 15905 05-17-16 E
208 gamefreak1292 4.5% 15919 05-17-16 E
209 Badlex727 4.5% 15923 05-17-16 E
210 Chaos_Overlord 4.2% 15968 05-17-16 E
211 TakaRikka 4.1% 15988 05-17-16 E
212 Valfore 4.0% 16002 05-17-16 E
213 ShinigamiMachine 3.9% 16025 05-17-16 E
214 Regano1000 3.8% 16037 05-17-16 E
215 MK 3.6% 16059 05-17-16 E
216 Ace747 3.6% 16073 05-17-16 E
217 Illidan 3.2% 16130 05-17-16 E
218 HHNNBBHHN 3.2% 16134 05-17-16 E
219 Venick409 3.1% 16145 05-17-16 E
220 Brian_pso 3.1% 16147 05-17-16 E
221 nman36 3.1% 16150 05-17-16 E
222 Sithwarrior26 3.1% 16151 05-17-16 E
223 Egor305 3.0% 16170 05-17-16 E
224 ingx24 3.0% 16175 05-17-16 E
225 TheChaosEmeraIds 2.9% 16178 05-17-16 E
226 Nickson98 2.9% 16186 05-17-16 E
227 SkyBon 2.9% 16187 05-17-16 E
228 Fozer 2.8% 16201 05-17-16 E
229 FSSRandomvids 2.8% 16204 05-17-16 E
230 Colomb_30 2.7% 16213 05-17-16 E
231 dekki1234 2.7% 16216 05-17-16 E
232 sonic29887 2.7% 16220 05-17-16 E
233 Aiko 2.7% 16221 05-17-16 E
234 Wanamaker 2.7% 16223 05-17-16 E
235 TheUltraBlur 2.6% 16228 05-17-16 E
236 1stKirbyever 2.6% 16231 05-17-16 E
237 TimTH 2.5% 16243 05-17-16 E
238 Th4tN1nj4Turtl3 2.4% 16272 05-17-16 E
239 Cort_pso 2.3% 16276 05-17-16 E
240 ieatatsonic 2.3% 16286 05-17-16 E
241 Doom-9 2.3% 16288 05-17-16 E
242 Mariosonic15 2.3% 16291 05-17-16 E
243 SonataSpinDash 2.2% 16299 05-17-16 E
244 MStitomix 2.2% 16308 05-17-16 E
245 HermitHelmet 2.1% 16313 05-17-16 E
246 SuperSonic71087 2.1% 16321 05-17-16 E
247 Artie 2.0% 16326 05-17-16 E
247 Got4n 2.0% 16326 05-17-16 E
249 Jose_15 2.0% 16336 05-17-16 E
250 Questionguy555 2.0% 16339 05-17-16 E
251 djmat 1.9% 16358 05-17-16 E
252 SuperSonicfan9595 1.9% 16359 05-17-16 E
253 sonicandamy 1.7% 16378 05-17-16 E
254 LancexExWx 1.7% 16385 05-17-16 E
255 Paixii 1.7% 16388 05-17-16 E
256 Heroes_Hater 1.7% 16389 05-17-16 E
256 son1cgu1tar 1.7% 16389 05-17-16 E
258 BallzeH 1.6% 16403 05-17-16 E
259 Mankster101 1.5% 16410 05-17-16 E
260 BecauseWarAnvil 1.5% 16411 05-17-16 E
261 Jamixesa 1.5% 16412 05-17-16 E
262 Crydio 1.5% 16422 05-17-16 E
263 Shanekilz 1.4% 16427 05-17-16 E
264 SpiritDragon1995 1.4% 16429 05-17-16 E
265 ReuelBrony 1.4% 16435 05-17-16 E
266 stanski 1.4% 16442 05-17-16 E
267 MarewBFN 1.3% 16443 05-17-16 E
268 Sonique Hedgehog 1.3% 16448 05-17-16 E
269 p0ker 1.3% 16458 05-17-16 E
270 Blue Infamy 1.3% 16459 05-17-16 E
271 ErrortheCucco 1.2% 16469 05-17-16 E
272 Rikum22 1.2% 16472 05-17-16 E
273 Arthas 1.1% 16477 05-17-16 E
274 sonic1001 1.1% 16481 05-17-16 E
275 AJSIV 1.1% 16486 05-17-16 E
276 syco1098 1.1% 16488 05-17-16 E
276 WingedInsignia 1.1% 16488 05-17-16 E
278 Sonic the Hedgehod16 1.1% 16491 05-17-16 E
279 sonicfan9 1.0% 16499 05-17-16 E
280 Calfd 1.0% 16502 05-17-16 E
281 BlackArmsShadow 0.9% 16510 05-17-16 E
282 themachoman202 0.9% 16513 05-17-16 E
283 shadowblast63 Player Banned 0.9% 16520 05-17-16 E
284 Fivavoa 0.9% 16523 05-17-16 E
284 Greham Adelphis 0.9% 16523 05-17-16 E
284 Mr. Jones 0.9% 16523 05-17-16 E
287 MastaToken 0.9% 16524 05-17-16 E
288 darkstarblaze 0.9% 16525 05-17-16 E
289 arcfx1985 0.8% 16526 05-17-16 E
289 Ben1502 0.8% 16526 05-17-16 E
291 ptorflaxendrosis 0.8% 16528 05-17-16 E
292 FlandreScarlet9999vr 0.8% 16533 05-17-16 E
292 Gvozdevik 0.8% 16533 05-17-16 E
294 Knuckles 0.8% 16535 05-17-16 E
295 Zeldocto 0.8% 16536 05-17-16 E
296 BeeAwwb 0.8% 16539 05-17-16 E
297 KaM Mark MaK 0.8% 16542 05-17-16 E
298 ShadouZaHejjihoggu 0.7% 16548 05-17-16 E
299 Sonic The Star 0.7% 16555 05-17-16 E
299 Sonic62 0.7% 16555 05-17-16 E
301 darkersupershadic 0.7% 16556 05-17-16 E
302 dragondragon18 0.6% 16560 05-17-16 E
302 Sarger001 0.6% 16560 05-17-16 E
302 Sogeking 0.6% 16560 05-17-16 E
305 SonicK100 0.6% 16561 05-17-16 E
306 Grady219 0.6% 16562 05-17-16 E
306 Shadygamerfreak 0.6% 16562 05-17-16 E
308 Jawaah 0.6% 16567 05-17-16 E
309 Antek 0.6% 16572 05-17-16 E
310 Klaus 0.6% 16574 05-17-16 E
311 SilverK 0.6% 16575 05-17-16 E
312 BioShadow 0.5% 16577 05-17-16 E
313 SpinDashMaster 0.5% 16581 05-17-16 E
314 Videogamer123 0.5% 16584 05-17-16 E
315 oTaiIilLsS 0.4% 16597 05-17-16 E
316 isaihtb11 0.4% 16598 05-17-16 E
317 OhNoes! 0.4% 16600 05-17-16 E
318 zaktu40 0.4% 16602 05-17-16 E
319 Mad Andy 0.4% 16603 05-17-16 E
320 S-MS32X-S 0.4% 16604 05-17-16 E
321 gaara1234 0.4% 16605 05-17-16 E
322 gamed00d 0.4% 16609 05-17-16 E
323 Mister_Slick 0.3% 16615 05-17-16 E
324 Sonic06Fan 0.3% 16619 05-17-16 E
325 Rush Hero 0.3% 16621 05-17-16 E
326 Iwannabelink 0.3% 16625 05-17-16 E
327 SonicMega167 0.2% 16626 05-17-16 E
328 sonknuck23 0.2% 16631 05-17-16 E
329 DanielTheFalcon 0.2% 16637 05-17-16 E
330 gamer1245 0.2% 16638 05-17-16 E
331 Burningskull123 0.1% 16645 05-17-16 E
332 Sonicontherun 0.1% 16655 05-17-16 E
333 Lil_Dude 0.1% 16659 05-17-16 E
334 antiwwe 0.0% 16661 05-17-16 E
335 Genuine Hedgehog 0.0% 16665 05-17-16 E
336 Cbwade15 0.0% 16666 05-17-16 E
337 Tyrouble 0.0% 16669 05-17-16 E
338 MegabombBlade 0.0% 16676 05-17-16 E
338 neji_hyuuga 0.0% 16676 05-17-16 E
338 Over 0.0% 16676 05-17-16 E
338 sdj6707 Player Banned 0.0% 16676 05-17-16 E
338 Tran Sonic Fan Player Banned 0.0% 16676 05-17-16 E

This page is using the New Data Table System. [FUTURE]


-- Back to Normal Skin --
Game ID: 3 | Category ID: 10
Hits: 66,862 | Hits This Month: 187 | DB Calls: 16 | Mem Usage: 5.45 MB | Time: 0.67s | Printable

The Sonic Center v3.9
Copyright 2003-2011 by The Sonic Center Team.